Time;durP1;ratioP1;P1;durP2;ratioP2;P2;SDS_P1;SDS_P2;PMS_P1;PMS_P2;Temp;Humidity;BMP_temperature;BMP_pressure;BME280_temperature;BME280_humidity;BME280_pressure;Samples;Min_cycle;Max_cycle;Signal;HPM_P1;HPM_P2
2022/07/14 00:00:18;;;;;;;2.67;0.60;;;12.60;99.90;;;;;;5048395;28;20375;-80
2022/07/14 00:02:46;;;;;;;2.60;0.70;;;12.80;99.80;;;;;;5048345;28;20470;-81
2022/07/14 00:05:13;;;;;;;3.53;0.80;;;12.80;99.60;;;;;;5047861;28;20414;-80
2022/07/14 00:07:40;;;;;;;1.30;0.50;;;12.70;99.10;;;;;;5047179;28;20442;-79
2022/07/14 00:10:07;;;;;;;0.95;0.25;;;12.70;99.80;;;;;;5038766;28;20374;-80
2022/07/14 00:12:35;;;;;;;3.33;0.50;;;12.70;99.80;;;;;;5072758;28;20519;-80
2022/07/14 00:15:02;;;;;;;1.60;0.38;;;12.70;99.90;;;;;;5090461;28;20376;-79
2022/07/14 00:17:29;;;;;;;4.80;0.90;;;12.70;99.90;;;;;;5090408;28;20424;-80
2022/07/14 00:19:56;;;;;;;1.87;0.60;;;12.70;99.90;;;;;;5090441;28;20868;-82
2022/07/14 00:22:24;;;;;;;5.90;0.93;;;12.80;99.90;;;;;;5090617;28;20422;-79
2022/07/14 00:24:51;;;;;;;3.45;0.90;;;12.80;99.90;;;;;;5089854;28;20422;-82
2022/07/14 00:27:18;;;;;;;2.40;0.80;;;12.90;99.90;;;;;;5090745;28;20371;-80
2022/07/14 00:29:45;;;;;;;4.30;1.00;;;13.00;99.90;;;;;;5090417;28;20778;-80
2022/07/14 00:32:12;;;;;;;4.30;0.90;;;13.20;99.90;;;;;;5090354;28;20377;-79
2022/07/14 00:34:40;;;;;;;6.38;0.70;;;13.20;99.90;;;;;;5089840;28;20376;-80
2022/07/14 00:37:07;;;;;;;6.80;0.75;;;13.40;99.60;;;;;;5090107;28;20967;-80
2022/07/14 00:42:37;;;;;;;8.07;0.90;;;13.60;99.50;;;;;;5090392;28;20394;-80
2022/07/14 00:45:07;;;;;;;3.30;0.67;;;13.90;98.40;;;;;;5089487;28;20467;-80
2022/07/14 00:47:35;;;;;;;5.60;0.85;;;14.00;98.10;;;;;;5089987;28;20449;-80
2022/07/14 00:50:02;;;;;;;3.17;0.83;;;14.00;98.90;;;;;;5075341;28;20455;-79
2022/07/14 00:52:30;;;;;;;4.72;1.00;;;14.00;99.00;;;;;;5095656;28;20458;-84
2022/07/14 00:54:58;;;;;;;2.28;1.00;;;14.00;99.40;;;;;;5098181;28;20370;-83
2022/07/14 00:57:26;;;;;;;2.65;0.70;;;13.90;98.50;;;;;;5090226;28;20403;-80
2022/07/14 00:59:53;;;;;;;2.15;0.80;;;13.90;99.10;;;;;;5093129;28;20391;-81
2022/07/14 01:02:21;;;;;;;4.10;1.20;;;14.10;98.70;;;;;;5095483;28;20436;-80
2022/07/14 01:04:49;;;;;;;5.07;1.30;;;14.30;97.60;;;;;;5097598;28;20369;-85
2022/07/14 01:07:18;;;;;;;3.28;0.90;;;14.50;98.10;;;;;;5090197;28;20372;-80
2022/07/14 01:09:45;;;;;;;3.40;0.85;;;14.70;97.30;;;;;;5090381;28;20364;-79
2022/07/14 01:12:13;;;;;;;5.38;1.10;;;14.50;97.60;;;;;;5076811;28;20437;-82
2022/07/14 01:14:41;;;;;;;7.47;1.30;;;14.60;97.90;;;;;;5089450;28;20882;-83
2022/07/14 01:17:10;;;;;;;4.03;1.10;;;14.60;98.00;;;;;;5090201;28;20420;-81
2022/07/14 01:19:37;;;;;;;3.20;1.10;;;14.70;97.60;;;;;;5090032;28;20442;-82
2022/07/14 01:22:07;;;;;;;16.83;1.40;;;14.70;97.70;;;;;;5090205;28;20376;-82
2022/07/14 01:24:35;;;;;;;9.05;0.95;;;15.50;97.60;;;;;;5089880;28;20491;-83
2022/07/14 01:27:02;;;;;;;10.32;1.05;;;14.50;97.80;;;;;;5090141;28;20400;-81
2022/07/14 01:29:29;;;;;;;3.73;0.70;;;14.60;97.40;;;;;;5089900;28;20368;-83
2022/07/14 01:31:57;;;;;;;8.45;1.27;;;14.60;97.70;;;;;;5088832;28;20399;-82
2022/07/14 01:34:24;;;;;;;13.20;1.33;;;14.70;97.90;;;;;;5090254;28;20835;-79
2022/07/14 01:36:52;;;;;;;8.57;1.35;;;14.70;97.60;;;;;;5075485;28;20405;-79
2022/07/14 01:39:20;;;;;;;12.60;1.70;;;14.70;97.90;;;;;;5099553;28;20390;-82
2022/07/14 01:41:47;;;;;;;12.80;1.43;;;14.80;97.60;;;;;;5090785;28;20445;-81
2022/07/14 01:44:14;;;;;;;10.88;1.27;;;15.00;96.80;;;;;;5079529;28;20416;-81
2022/07/14 01:46:41;;;;;;;5.90;0.95;;;14.90;97.00;;;;;;5090571;28;20375;-81
2022/07/14 01:49:08;;;;;;;9.18;1.20;;;14.80;96.40;;;;;;5093688;28;20403;-81
2022/07/14 01:51:36;;;;;;;18.17;1.70;;;14.70;97.10;;;;;;5093153;28;20923;-84
2022/07/14 01:54:06;;;;;;;8.95;1.20;;;14.90;96.70;;;;;;5093303;28;20380;-81
2022/07/14 01:56:41;;;;;;;5.07;0.90;;;14.90;96.40;;;;;;5093037;28;20457;-81
2022/07/14 01:59:09;;;;;;;6.55;1.10;;;14.90;95.80;;;;;;5093346;28;20373;-82
2022/07/14 02:01:39;;;;;;;4.35;0.80;;;15.00;96.30;;;;;;5093416;28;20373;-79
2022/07/14 02:04:10;;;;;;;6.28;1.00;;;15.20;95.90;;;;;;5093530;28;20369;-80
2022/07/14 02:06:45;;;;;;;8.27;0.80;;;15.30;94.90;;;;;;5092840;28;20415;-84
2022/07/14 02:09:12;;;;;;;5.90;0.70;;;15.20;94.10;;;;;;5093186;28;20859;-86
2022/07/14 02:14:25;;;;;;;12.70;1.30;;;15.70;93.10;;;;;;5090200;28;20865;-82
2022/07/14 02:16:54;;;;;;;6.45;0.77;;;15.80;92.20;;;;;;5092947;28;20396;-81
2022/07/14 02:19:23;;;;;;;9.10;1.27;;;15.60;92.40;;;;;;5099976;28;20379;-81
2022/07/14 02:21:52;;;;;;;7.78;1.10;;;15.50;92.60;;;;;;5104768;28;20744;-82
2022/07/14 02:24:20;;;;;;;11.23;1.38;;;15.40;93.20;;;;;;5092671;28;20377;-87
2022/07/14 02:26:50;;;;;;;22.10;1.48;;;15.60;92.80;;;;;;5092680;28;20369;-81
2022/07/14 02:29:18;;;;;;;10.82;1.10;;;15.60;92.20;;;;;;5092890;28;20705;-81
2022/07/14 02:31:46;;;;;;;6.82;1.65;;;16.00;92.70;;;;;;5078760;28;20414;-81
2022/07/14 02:34:13;;;;;;;5.82;1.20;;;16.40;91.40;;;;;;5092569;28;20460;-81
2022/07/14 02:36:41;;;;;;;7.73;1.13;;;16.20;90.80;;;;;;5103653;28;20404;-82
2022/07/14 02:39:09;;;;;;;7.57;1.15;;;16.30;90.10;;;;;;5092633;28;20557;-84
2022/07/14 02:41:36;;;;;;;7.22;0.98;;;16.30;90.10;;;;;;5092414;28;20391;-84
2022/07/14 02:44:03;;;;;;;13.90;1.30;;;16.30;90.70;;;;;;5092350;28;20384;-80
2022/07/14 02:46:30;;;;;;;5.23;1.00;;;16.40;90.60;;;;;;5092146;28;20412;-80
2022/07/14 02:48:57;;;;;;;9.45;1.30;;;16.60;88.30;;;;;;5103180;28;20384;-81
2022/07/14 02:51:24;;;;;;;5.82;1.02;;;16.50;89.90;;;;;;5092456;28;20370;-79
2022/07/14 02:53:52;;;;;;;10.48;1.00;;;16.30;89.80;;;;;;5090923;28;20895;-80
2022/07/14 02:56:19;;;;;;;5.63;0.80;;;16.10;90.30;;;;;;5092231;28;20450;-85
2022/07/14 02:58:47;;;;;;;3.60;0.70;;;15.70;90.50;;;;;;5092145;28;20508;-83
2022/07/14 03:01:14;;;;;;;3.92;0.85;;;15.40;92.00;;;;;;5091848;28;20376;-79
2022/07/14 03:03:41;;;;;;;6.70;1.10;;;15.60;91.90;;;;;;5091732;28;20917;-80
2022/07/14 03:06:17;;;;;;;3.78;1.20;;;15.70;91.50;;;;;;5091955;28;20382;-82
2022/07/14 03:08:44;;;;;;;4.67;0.90;;;15.60;90.70;;;;;;5091752;28;20919;-81
2022/07/14 03:11:12;;;;;;;5.00;0.95;;;15.40;91.60;;;;;;5090287;28;20380;-80
2022/07/14 03:13:40;;;;;;;7.50;0.90;;;15.60;92.10;;;;;;5090407;28;20385;-82
2022/07/14 03:16:09;;;;;;;4.45;0.80;;;15.80;91.30;;;;;;5091123;28;20404;-84
2022/07/14 03:18:39;;;;;;;3.92;0.95;;;15.90;90.90;;;;;;5091634;28;20404;-81
2022/07/14 03:21:11;;;;;;;5.22;1.02;;;16.20;89.70;;;;;;5091747;28;20373;-81
2022/07/14 03:23:38;;;;;;;9.20;1.33;;;16.50;88.10;;;;;;5091752;28;20795;-81
2022/07/14 03:26:06;;;;;;;8.00;1.13;;;16.40;88.70;;;;;;5091071;28;20876;-84
2022/07/14 03:28:33;;;;;;;4.93;1.00;;;16.50;87.20;;;;;;5091417;28;20376;-81
2022/07/14 03:31:00;;;;;;;8.30;1.40;;;16.40;86.70;;;;;;5091208;28;20384;-84
2022/07/14 03:33:28;;;;;;;9.38;1.20;;;16.10;88.10;;;;;;5084260;28;20384;-82
2022/07/14 03:35:55;;;;;;;3.90;1.30;;;15.80;89.20;;;;;;5090967;28;20434;-81
2022/07/14 03:38:22;;;;;;;6.20;1.13;;;15.60;90.50;;;;;;5090752;28;20887;-80
2022/07/14 03:40:49;;;;;;;6.72;1.10;;;15.50;91.20;;;;;;5090937;28;20756;-83
2022/07/14 03:43:16;;;;;;;9.40;0.93;;;15.50;90.70;;;;;;5091007;28;20384;-82
2022/07/14 03:45:43;;;;;;;5.05;1.00;;;15.40;91.50;;;;;;5091137;28;20372;-84
2022/07/14 03:48:11;;;;;;;10.80;1.25;;;15.40;91.20;;;;;;5091131;28;20379;-85
2022/07/14 03:50:38;;;;;;;3.63;0.80;;;15.40;91.60;;;;;;5091039;28;20425;-84
2022/07/14 03:53:05;;;;;;;2.67;0.63;;;15.40;91.80;;;;;;5090732;28;20756;-84
2022/07/14 03:55:33;;;;;;;5.07;1.00;;;15.40;92.20;;;;;;5090934;28;20388;-82
2022/07/14 03:58:00;;;;;;;12.77;1.40;;;15.40;91.60;;;;;;5091201;28;20404;-84
2022/07/14 04:00:27;;;;;;;10.55;1.15;;;15.40;91.70;;;;;;5091043;28;20380;-82
2022/07/14 04:02:55;;;;;;;8.32;1.27;;;15.40;91.70;;;;;;5091810;28;20934;-85
2022/07/14 04:05:22;;;;;;;11.15;1.33;;;15.40;91.00;;;;;;5091901;28;20384;-85
2022/07/14 04:07:50;;;;;;;10.15;1.30;;;15.30;91.30;;;;;;5091273;28;20383;-84
2022/07/14 04:10:20;;;;;;;9.32;1.10;;;15.40;92.10;;;;;;5090905;28;20396;-86
2022/07/14 04:12:47;;;;;;;11.30;1.38;;;15.50;91.90;;;;;;5076449;28;20372;-85
2022/07/14 04:15:14;;;;;;;7.38;1.00;;;15.30;91.70;;;;;;5090338;28;20388;-84
2022/07/14 04:17:41;;;;;;;3.90;1.10;;;15.30;91.80;;;;;;5090589;28;20472;-84
2022/07/14 04:20:09;;;;;;;6.60;0.90;;;15.40;91.50;;;;;;5090431;28;20475;-82
2022/07/14 04:22:37;;;;;;;11.53;1.23;;;15.50;91.20;;;;;;5090331;28;20437;-83
2022/07/14 04:25:05;;;;;;;6.13;1.10;;;15.60;91.20;;;;;;5090849;28;20376;-84
2022/07/14 04:27:32;;;;;;;7.53;1.00;;;15.70;91.30;;;;;;5090689;28;20487;-84
2022/07/14 04:29:59;;;;;;;10.20;1.10;;;16.00;91.00;;;;;;5090647;28;20986;-84
2022/07/14 04:32:27;;;;;;;13.05;1.52;;;16.00;87.00;;;;;;5090584;28;20376;-84
2022/07/14 04:34:54;;;;;;;8.70;1.10;;;16.10;87.00;;;;;;5090168;28;20392;-85
2022/07/14 04:37:21;;;;;;;9.13;0.90;;;16.10;84.20;;;;;;5089930;28;20447;-84
2022/07/14 04:39:48;;;;;;;4.10;0.90;;;15.90;84.20;;;;;;5090432;28;20396;-82
2022/07/14 04:42:15;;;;;;;6.88;1.00;;;15.80;84.30;;;;;;5090849;28;20398;-86
2022/07/14 04:44:43;;;;;;;12.35;1.60;;;15.70;85.90;;;;;;5090222;28;20369;-82
2022/07/14 04:47:10;;;;;;;10.38;1.00;;;15.70;86.40;;;;;;5090651;28;20455;-85
2022/07/14 04:52:23;;;;;;;14.37;1.50;;;17.00;82.40;;;;;;5078197;28;20368;-83
2022/07/14 04:54:50;;;;;;;10.93;1.30;;;16.80;81.50;;;;;;5090243;28;20381;-86
2022/07/14 04:57:19;;;;;;;5.88;0.93;;;16.40;81.80;;;;;;5076388;28;20396;-85
2022/07/14 04:59:47;;;;;;;7.50;1.10;;;16.30;82.70;;;;;;5090099;28;20467;-85
2022/07/14 05:02:14;;;;;;;7.90;1.00;;;17.00;82.40;;;;;;5075892;28;20733;-83
2022/07/14 05:04:42;;;;;;;6.70;1.07;;;18.30;78.10;;;;;;5089874;28;20875;-84
2022/07/14 05:07:09;;;;;;;4.75;0.70;;;19.10;72.60;;;;;;5090071;28;20467;-83
2022/07/14 05:09:36;;;;;;;4.65;0.90;;;19.00;69.30;;;;;;5089827;28;20790;-82
2022/07/14 05:12:03;;;;;;;5.65;0.93;;;18.10;71.50;;;;;;5078271;28;20747;-83
2022/07/14 05:14:31;;;;;;;3.15;0.70;;;17.40;74.60;;;;;;5087478;28;20394;-83
2022/07/14 05:16:58;;;;;;;5.35;1.00;;;17.00;75.70;;;;;;5090052;28;20894;-83
2022/07/14 05:19:25;;;;;;;6.03;1.10;;;16.70;78.30;;;;;;5091003;28;20437;-82
2022/07/14 05:21:53;;;;;;;5.10;0.90;;;16.50;79.00;;;;;;5093982;28;20376;-82
2022/07/14 05:24:20;;;;;;;4.95;0.80;;;16.50;78.70;;;;;;5093502;28;20387;-84
2022/07/14 05:26:47;;;;;;;9.10;1.10;;;16.40;79.40;;;;;;5093682;28;20369;-87
2022/07/14 05:29:15;;;;;;;7.10;1.05;;;16.30;79.10;;;;;;5093759;28;20845;-85
2022/07/14 05:31:42;;;;;;;9.23;1.20;;;16.10;79.40;;;;;;5093670;28;20432;-83
2022/07/14 05:34:09;;;;;;;10.90;1.40;;;15.80;81.00;;;;;;5093846;28;20812;-89
2022/07/14 05:36:36;;;;;;;7.35;1.10;;;15.70;82.30;;;;;;5093120;28;20388;-83
2022/07/14 05:39:04;;;;;;;5.90;0.90;;;15.50;83.80;;;;;;5093993;28;20832;-83
2022/07/14 05:41:31;;;;;;;5.97;0.80;;;15.40;83.60;;;;;;5094603;28;20448;-84
2022/07/14 05:43:58;;;;;;;5.63;1.00;;;15.00;82.10;;;;;;5089582;28;20430;-87
2022/07/14 05:46:25;;;;;;;3.22;0.73;;;14.70;83.90;;;;;;5093776;28;21194;-91
2022/07/14 05:48:53;;;;;;;4.97;0.90;;;14.50;84.70;;;;;;5100118;28;20723;-87
2022/07/14 05:51:22;;;;;;;4.03;0.95;;;14.40;86.20;;;;;;5100477;28;20380;-85
2022/07/14 05:53:50;;;;;;;7.20;1.02;;;14.30;88.00;;;;;;5079041;28;20365;-85
2022/07/14 05:56:17;;;;;;;3.38;0.93;;;14.40;87.50;;;;;;5098574;28;20397;-86
2022/07/14 05:58:45;;;;;;;4.80;0.90;;;14.50;87.60;;;;;;5094691;28;20404;-84
2022/07/14 06:01:13;;;;;;;6.47;0.88;;;14.60;87.00;;;;;;5093311;28;20454;-86
2022/07/14 06:03:41;;;;;;;3.58;0.80;;;14.60;86.70;;;;;;5093711;28;20449;-85
2022/07/14 06:06:09;;;;;;;4.27;0.83;;;14.70;86.90;;;;;;5093183;28;20505;-84
2022/07/14 06:08:37;;;;;;;1.67;0.70;;;14.50;86.30;;;;;;5092320;28;20384;-83
2022/07/14 06:11:04;;;;;;;4.50;0.70;;;14.30;87.30;;;;;;5091322;28;20512;-85
2022/07/14 06:13:32;;;;;;;4.30;0.80;;;14.10;88.80;;;;;;5082741;28;20384;-84
2022/07/14 06:16:00;;;;;;;3.80;0.77;;;14.00;89.10;;;;;;5095853;28;20384;-89
2022/07/14 06:18:27;;;;;;;2.53;0.60;;;13.80;89.00;;;;;;5093154;28;20537;-84
2022/07/14 06:20:55;;;;;;;3.13;0.80;;;13.70;89.80;;;;;;5094527;28;20846;-90
2022/07/14 06:23:22;;;;;;;4.32;0.73;;;13.60;90.40;;;;;;5091179;28;20381;-84
2022/07/14 06:25:49;;;;;;;3.03;0.63;;;13.50;90.40;;;;;;5099360;28;20945;-83
2022/07/14 06:28:16;;;;;;;2.63;0.68;;;13.50;90.50;;;;;;5092771;28;20402;-86
2022/07/14 06:30:44;;;;;;;3.03;0.60;;;13.40;90.20;;;;;;5099183;28;20395;-82
2022/07/14 06:33:11;;;;;;;4.07;0.80;;;13.30;90.40;;;;;;5092649;28;20882;-83
2022/07/14 06:35:40;;;;;;;3.10;0.70;;;13.30;90.50;;;;;;5094410;28;20388;-83
2022/07/14 06:38:07;;;;;;;3.72;0.70;;;13.20;90.80;;;;;;5095881;28;20409;-88
2022/07/14 06:40:34;;;;;;;2.60;0.75;;;13.10;91.00;;;;;;5093731;28;20385;-85
2022/07/14 06:43:02;;;;;;;3.20;0.70;;;13.10;91.40;;;;;;5091947;28;20468;-84
2022/07/14 06:45:29;;;;;;;4.07;0.70;;;13.00;91.70;;;;;;5092359;28;20383;-88
2022/07/14 06:47:56;;;;;;;4.82;0.82;;;12.90;91.80;;;;;;5092624;28;20392;-87
2022/07/14 06:50:23;;;;;;;1.73;0.70;;;12.70;92.20;;;;;;5092098;28;20369;-84
2022/07/14 06:52:51;;;;;;;3.08;0.90;;;12.60;93.00;;;;;;5098283;28;20417;-84
2022/07/14 06:55:18;;;;;;;4.20;0.75;;;12.50;93.60;;;;;;5106895;28;20385;-84
2022/07/14 06:57:45;;;;;;;8.40;1.00;;;12.40;94.10;;;;;;5093306;28;20749;-86
2022/07/14 07:00:13;;;;;;;3.30;0.80;;;12.30;94.60;;;;;;5096558;28;20421;-85
2022/07/14 07:02:40;;;;;;;7.43;1.15;;;12.10;95.30;;;;;;5095085;28;20390;-84
2022/07/14 07:07:58;;;;;;;5.47;0.90;;;12.10;96.30;;;;;;5090549;28;20392;-84
2022/07/14 07:10:26;;;;;;;3.55;0.80;;;12.10;96.30;;;;;;5091206;28;20449;-84
2022/07/14 07:12:53;;;;;;;4.50;0.70;;;12.00;96.10;;;;;;5100938;28;20385;-86
2022/07/14 07:15:21;;;;;;;8.40;0.90;;;12.00;96.10;;;;;;5092641;28;20384;-84
2022/07/14 07:17:49;;;;;;;3.55;0.80;;;11.90;96.40;;;;;;5094101;28;20469;-87
2022/07/14 07:20:16;;;;;;;2.60;0.90;;;11.80;96.70;;;;;;5091615;28;20446;-86
2022/07/14 07:22:43;;;;;;;3.30;0.80;;;11.80;97.00;;;;;;5091379;28;20404;-83
2022/07/14 07:25:12;;;;;;;3.28;0.80;;;11.70;97.40;;;;;;5092285;28;20443;-84
2022/07/14 07:27:39;;;;;;;4.25;0.80;;;11.60;97.80;;;;;;5092772;28;20396;-83
2022/07/14 07:30:08;;;;;;;4.83;0.87;;;11.60;97.90;;;;;;5091973;28;20380;-86
2022/07/14 07:32:36;;;;;;;2.10;0.80;;;11.60;98.00;;;;;;5090143;28;20407;-84
2022/07/14 07:35:04;;;;;;;2.95;0.80;;;11.50;98.50;;;;;;5091520;28;20380;-85
2022/07/14 07:37:31;;;;;;;3.97;1.05;;;11.50;98.80;;;;;;5091308;28;20423;-86
2022/07/14 07:39:59;;;;;;;4.07;1.00;;;11.40;98.90;;;;;;5092393;28;20399;-85
2022/07/14 07:42:26;;;;;;;4.35;1.00;;;11.40;99.10;;;;;;5091041;28;20463;-86
2022/07/14 07:44:55;;;;;;;5.90;1.10;;;11.30;99.30;;;;;;5088535;28;20421;-87
2022/07/14 07:47:23;;;;;;;4.32;1.13;;;11.30;99.40;;;;;;5092295;28;20376;-89
2022/07/14 07:49:51;;;;;;;3.97;0.80;;;11.40;99.50;;;;;;5091917;28;20372;-88
2022/07/14 07:52:19;;;;;;;2.03;0.80;;;11.40;99.10;;;;;;5090809;28;20392;-87
2022/07/14 07:54:46;;;;;;;5.15;1.00;;;11.50;98.90;;;;;;5087446;28;20380;-85
2022/07/14 07:57:13;;;;;;;3.85;1.00;;;11.50;98.80;;;;;;5090955;28;20481;-82
2022/07/14 07:59:40;;;;;;;2.78;0.90;;;11.20;99.00;;;;;;5091196;28;20373;-86
2022/07/14 08:02:08;;;;;;;3.67;0.80;;;11.50;99.00;;;;;;5090781;28;20437;-86
2022/07/14 08:04:35;;;;;;;2.75;0.88;;;11.50;99.10;;;;;;5090777;28;20380;-88
2022/07/14 08:07:02;;;;;;;1.95;0.70;;;11.40;99.30;;;;;;5090146;28;20458;-89
2022/07/14 08:09:29;;;;;;;2.38;0.80;;;11.40;99.40;;;;;;5097248;28;20383;-91
2022/07/14 08:11:56;;;;;;;3.25;0.90;;;11.40;99.50;;;;;;5091614;28;20408;-84
2022/07/14 08:17:09;;;;;;;2.97;1.10;;;11.20;99.90;;;;;;5089533;28;20438;-86
2022/07/14 08:19:37;;;;;;;4.05;1.10;;;11.30;99.90;;;;;;5089795;28;20906;-86
2022/07/14 08:22:05;;;;;;;4.53;1.20;;;11.30;99.90;;;;;;5090314;28;20470;-85
2022/07/14 08:24:32;;;;;;;4.82;1.00;;;11.30;99.90;;;;;;5091381;28;20400;-85
2022/07/14 08:26:59;;;;;;;2.90;1.10;;;11.30;99.90;;;;;;5101981;28;20364;-84
2022/07/14 08:29:26;;;;;;;3.13;1.20;;;11.40;99.90;;;;;;5078277;28;20383;-85
2022/07/14 08:31:54;;;;;;;2.92;1.10;;;11.30;99.90;;;;;;5089788;28;20902;-86
2022/07/14 08:34:21;;;;;;;3.13;1.10;;;11.30;99.90;;;;;;5097271;28;20404;-85
2022/07/14 08:36:48;;;;;;;4.73;1.33;;;11.30;99.90;;;;;;5089177;28;20412;-85
2022/07/14 08:39:16;;;;;;;5.47;1.15;;;11.20;99.90;;;;;;5090543;28;20383;-92
2022/07/14 08:41:44;;;;;;;5.40;1.30;;;11.10;99.90;;;;;;5091016;28;20370;-89
2022/07/14 08:44:12;;;;;;;5.43;1.30;;;11.10;99.90;;;;;;5090191;28;20744;-85
2022/07/14 08:46:39;;;;;;;4.73;1.37;;;10.90;99.90;;;;;;5090128;28;20464;-84
2022/07/14 08:49:07;;;;;;;6.43;1.27;;;10.90;99.90;;;;;;5089823;28;20373;-86
2022/07/14 08:51:38;;;;;;;6.57;1.55;;;10.90;99.90;;;;;;5090287;28;20436;-85
2022/07/14 08:54:08;;;;;;;8.02;1.77;;;10.90;99.90;;;;;;5089845;28;20400;-82
2022/07/14 08:56:37;;;;;;;7.15;1.85;;;10.90;99.90;;;;;;5094375;28;20376;-83
2022/07/14 08:59:05;;;;;;;5.88;1.70;;;10.80;99.90;;;;;;5092481;28;20756;-81
2022/07/14 09:01:32;;;;;;;5.30;1.90;;;10.70;99.90;;;;;;5095797;28;20376;-82
2022/07/14 09:03:59;;;;;;;7.00;2.60;;;10.70;99.90;;;;;;5096818;28;20759;-82
2022/07/14 09:06:46;;;;;;;9.65;2.88;;;10.60;99.90;;;;;;5093854;28;20781;-84
2022/07/14 09:09:18;;;;;;;9.60;2.83;;;10.60;99.90;;;;;;5094005;28;20392;-83
2022/07/14 09:12:04;;;;;;;7.85;2.45;;;10.50;99.90;;;;;;5091282;28;20380;-83
2022/07/14 09:17:22;;;;;;;6.07;1.70;;;10.30;99.90;;;;;;5093798;28;20445;-83
2022/07/14 09:20:13;;;;;;;6.43;1.50;;;10.30;99.90;;;;;;5087436;28;20390;-82
2022/07/14 09:22:43;;;;;;;6.90;1.60;;;10.30;99.90;;;;;;5091764;28;20422;-83
2022/07/14 09:25:17;;;;;;;4.82;1.50;;;10.20;99.90;;;;;;5092616;28;20383;-84
2022/07/14 09:27:46;;;;;;;3.80;1.40;;;10.10;99.90;;;;;;5093903;28;20778;-83
2022/07/14 09:30:14;;;;;;;4.15;1.20;;;10.10;99.90;;;;;;5104088;28;20409;-81
2022/07/14 09:32:58;;;;;;;3.58;1.40;;;10.10;99.90;;;;;;5086621;28;20412;-86
2022/07/14 09:35:43;;;;;;;4.93;1.60;;;10.00;99.90;;;;;;5092420;28;20384;-82
2022/07/14 09:38:17;;;;;;;4.10;1.77;;;9.90;99.90;;;;;;5093326;28;20498;-84
2022/07/14 09:40:45;;;;;;;4.65;1.75;;;9.90;99.90;;;;;;5095117;28;20387;-83
2022/07/14 09:43:13;;;;;;;5.85;2.05;;;9.80;99.90;;;;;;5092878;28;20876;-84
2022/07/14 09:45:44;;;;;;;5.60;1.90;;;9.60;99.90;;;;;;5092545;28;20403;-82
2022/07/14 09:48:13;;;;;;;7.47;1.77;;;9.50;99.90;;;;;;5094268;28;20762;-85
2022/07/14 09:50:46;;;;;;;8.33;1.80;;;9.40;99.90;;;;;;5092973;28;20407;-82
2022/07/14 09:53:17;;;;;;;7.28;2.03;;;9.30;99.90;;;;;;5094057;28;20388;-83
2022/07/14 09:56:07;;;;;;;6.85;1.67;;;9.30;99.90;;;;;;5092746;28;20381;-82
2022/07/14 09:58:44;;;;;;;5.45;1.60;;;9.30;99.90;;;;;;5094238;28;20407;-86
2022/07/14 10:01:20;;;;;;;7.40;2.08;;;9.10;99.90;;;;;;5091889;28;20752;-82
2022/07/14 10:03:52;;;;;;;5.80;2.17;;;9.00;99.90;;;;;;5100123;28;20399;-83
2022/07/14 10:06:21;;;;;;;5.60;2.13;;;8.90;99.90;;;;;;5093135;28;20377;-82
2022/07/14 10:08:57;;;;;;;8.68;2.75;;;8.70;99.90;;;;;;5089833;28;20409;-87
2022/07/14 10:11:34;;;;;;;16.88;9.77;;;8.60;99.90;;;;;;5082036;28;20426;-81
2022/07/14 10:14:02;;;;;;;20.30;15.82;;;8.30;99.90;;;;;;5085051;28;20847;-83
2022/07/14 10:16:33;;;;;;;21.70;13.85;;;8.40;99.90;;;;;;5078464;28;20403;-82
2022/07/14 10:19:03;;;;;;;34.20;25.65;;;8.30;99.90;;;;;;5106109;28;20448;-82
2022/07/14 10:21:30;;;;;;;157.60;122.83;;;8.30;99.90;;;;;;5088894;28;20377;-82
2022/07/14 10:23:58;;;;;;;212.13;173.10;;;8.20;99.90;;;;;;5092403;28;20440;-84
2022/07/14 10:26:25;;;;;;;219.82;181.40;;;8.10;99.90;;;;;;5092542;28;20848;-82
2022/07/14 10:28:53;;;;;;;93.63;79.35;;;8.00;99.90;;;;;;5092281;28;20384;-82
2022/07/14 10:32:07;;;;;;;194.23;165.05;;;8.00;99.90;;;;;;5090156;28;20379;-84
2022/07/14 10:35:05;;;;;;;45.53;38.55;;;7.90;99.90;;;;;;5010136;28;20477;-84
2022/07/14 10:37:43;;;;;;;57.70;49.72;;;7.80;99.90;;;;;;5002268;28;20511;-82
2022/07/14 10:40:54;;;;;;;26.48;20.95;;;7.70;99.90;;;;;;5008484;28;20399;-82
2022/07/14 10:43:25;;;;;;;20.92;16.45;;;7.70;99.90;;;;;;5008528;28;20379;-82
2022/07/14 10:45:56;;;;;;;13.63;10.00;;;7.60;99.90;;;;;;4998306;28;20487;-82
2022/07/14 10:48:35;;;;;;;9.13;5.45;;;7.60;99.90;;;;;;5009284;28;20391;-82
2022/07/14 10:51:26;;;;;;;11.15;6.38;;;7.50;99.90;;;;;;5009468;28;20499;-83
2022/07/14 10:54:13;;;;;;;11.10;6.72;;;7.40;99.90;;;;;;5008582;28;20482;-85
2022/07/14 10:56:43;;;;;;;9.77;5.45;;;7.30;99.90;;;;;;5007648;28;20399;-82
2022/07/14 10:59:29;;;;;;;15.45;8.32;;;7.30;99.90;;;;;;5009243;28;20411;-82
2022/07/14 11:02:14;;;;;;;7.03;4.07;;;7.20;99.90;;;;;;5009857;28;21312;-83
2022/07/14 11:05:04;;;;;;;6.43;3.70;;;7.20;99.90;;;;;;4996119;28;20512;-81
2022/07/14 11:07:48;;;;;;;9.73;3.58;;;7.20;99.90;;;;;;5005326;28;20458;-83
2022/07/14 11:10:24;;;;;;;8.60;4.53;;;7.20;99.90;;;;;;5011546;28;20427;-83
2022/07/14 11:13:06;;;;;;;6.43;3.20;;;7.10;99.90;;;;;;5093234;28;20388;-82
2022/07/14 11:15:40;;;;;;;7.73;3.10;;;7.20;99.90;;;;;;5091199;28;20388;-82
2022/07/14 11:18:24;;;;;;;5.07;2.40;;;7.20;99.90;;;;;;5089362;28;20400;-82
2022/07/14 11:20:58;;;;;;;4.93;2.40;;;7.30;99.90;;;;;;5088443;28;20391;-82
2022/07/14 11:23:29;;;;;;;3.13;1.93;;;7.30;99.90;;;;;;5091392;28;20396;-83
2022/07/14 11:25:58;;;;;;;4.60;1.80;;;7.40;99.90;;;;;;5090981;28;20883;-84
2022/07/14 11:28:43;;;;;;;3.22;1.80;;;7.40;99.90;;;;;;5090069;28;20732;-82
2022/07/14 11:31:15;;;;;;;6.30;2.60;;;7.40;99.90;;;;;;5091268;28;20380;-83
2022/07/14 11:36:33;;;;;;;7.78;2.80;;;7.50;99.90;;;;;;5098124;28;20764;-82
2022/07/14 11:39:21;;;;;;;8.02;2.60;;;7.50;99.90;;;;;;5098481;28;20408;-82
2022/07/14 11:42:11;;;;;;;9.35;2.55;;;7.40;99.90;;;;;;5090987;28;20476;-84
2022/07/14 11:44:38;;;;;;;9.20;2.70;;;7.40;99.90;;;;;;5103491;28;20416;-82
2022/07/14 11:47:13;;;;;;;7.18;2.70;;;7.40;99.90;;;;;;5086099;28;20382;-84
2022/07/14 11:49:40;;;;;;;9.95;2.60;;;7.40;99.90;;;;;;5090726;28;20887;-83
2022/07/14 11:52:09;;;;;;;5.03;2.50;;;7.40;99.90;;;;;;5092022;28;20455;-86
2022/07/14 11:54:36;;;;;;;6.17;2.47;;;7.50;99.90;;;;;;5098810;28;20428;-84
2022/07/14 11:57:11;;;;;;;9.18;2.50;;;7.50;99.90;;;;;;5088836;28;20741;-82
2022/07/14 11:59:42;;;;;;;6.47;2.40;;;7.40;99.90;;;;;;5091500;28;20416;-85
2022/07/14 12:02:14;;;;;;;11.57;2.70;;;7.40;99.90;;;;;;5096141;28;20396;-83
2022/07/14 12:04:59;;;;;;;7.15;2.50;;;7.30;99.90;;;;;;5099344;28;20950;-83
2022/07/14 12:07:48;;;;;;;6.63;2.40;;;7.30;99.90;;;;;;5090843;28;20471;-83
2022/07/14 12:10:33;;;;;;;6.55;2.60;;;7.20;99.90;;;;;;5090425;28;20371;-83
2022/07/14 12:13:00;;;;;;;8.18;2.70;;;7.10;99.90;;;;;;5092525;28;20402;-83
2022/07/14 12:15:27;;;;;;;8.00;3.10;;;7.10;99.90;;;;;;5096029;28;20379;-84
2022/07/14 12:17:55;;;;;;;7.97;3.60;;;7.20;99.90;;;;;;5092495;28;20411;-85
2022/07/14 12:20:24;;;;;;;7.97;3.80;;;7.20;99.90;;;;;;5090323;28;20450;-84
2022/07/14 12:22:56;;;;;;;7.17;3.90;;;7.20;99.90;;;;;;5091166;28;20461;-83
2022/07/14 12:25:35;;;;;;;8.30;4.38;;;7.20;99.90;;;;;;5089937;28;20380;-84
2022/07/14 12:28:09;;;;;;;10.23;4.30;;;7.20;99.90;;;;;;5087450;28;20393;-83
2022/07/14 12:30:52;;;;;;;10.10;4.07;;;7.20;99.90;;;;;;5090118;28;20470;-85
2022/07/14 12:33:24;;;;;;;7.88;4.85;;;7.20;99.90;;;;;;5090846;28;20736;-84
2022/07/14 12:35:56;;;;;;;10.35;4.60;;;7.20;99.90;;;;;;5089527;28;20409;-82
2022/07/14 12:38:25;;;;;;;12.35;5.30;;;7.20;99.90;;;;;;5092606;28;20768;-87
2022/07/14 12:41:01;;;;;;;13.87;5.07;;;7.20;99.90;;;;;;5093537;28;21257;-84
2022/07/14 12:43:36;;;;;;;10.63;5.30;;;7.10;99.90;;;;;;5100955;28;20730;-83
2022/07/14 12:46:13;;;;;;;17.30;9.40;;;7.10;99.90;;;;;;5092815;28;20388;-84
2022/07/14 12:48:50;;;;;;;27.40;16.48;;;7.00;99.90;;;;;;5091155;28;20987;-84
2022/07/14 12:51:24;;;;;;;12.65;8.63;;;6.90;99.90;;;;;;5090249;28;20434;-82
2022/07/14 12:54:00;;;;;;;13.10;7.05;;;6.90;99.90;;;;;;5093448;28;20743;-83
2022/07/14 12:56:33;;;;;;;10.23;5.60;;;6.80;99.90;;;;;;5097271;28;20780;-84
2022/07/14 12:59:02;;;;;;;12.85;4.28;;;6.70;99.90;;;;;;5088452;28;20408;-83
2022/07/14 13:01:30;;;;;;;16.40;4.10;;;6.70;99.90;;;;;;5090141;28;20368;-83
2022/07/14 13:04:03;;;;;;;8.73;3.80;;;6.70;99.90;;;;;;5101481;28;20868;-82
2022/07/14 13:06:50;;;;;;;7.68;4.07;;;6.80;99.90;;;;;;5090201;28;20389;-84
2022/07/14 13:09:18;;;;;;;7.55;3.47;;;6.70;99.90;;;;;;5080969;28;20384;-84
2022/07/14 13:11:46;;;;;;;6.33;3.43;;;6.80;99.90;;;;;;5083597;28;20405;-84
2022/07/14 13:14:14;;;;;;;9.25;3.92;;;6.70;99.90;;;;;;5087017;28;20847;-82
2022/07/14 13:16:46;;;;;;;5.78;3.70;;;6.70;99.90;;;;;;5100611;28;20388;-82
2022/07/14 13:19:24;;;;;;;9.57;3.60;;;6.60;99.90;;;;;;5104600;28;20438;-87
2022/07/14 13:22:07;;;;;;;7.25;3.60;;;6.50;99.90;;;;;;5096339;28;20370;-83